createdAt,value
2022-10-23T00:01:26.491Z,100.00
2022-10-23T00:04:01.376Z,100.00
2022-10-23T00:06:31.708Z,100.00
2022-10-23T00:09:00.249Z,100.00
2022-10-23T00:11:29.017Z,100.00
2022-10-23T00:13:58.695Z,100.00
2022-10-23T00:16:28.837Z,100.00
2022-10-23T00:18:55.712Z,100.00
2022-10-23T00:21:22.650Z,100.00
2022-10-23T00:23:49.433Z,100.00
2022-10-23T00:26:16.293Z,100.00
2022-10-23T00:28:50.970Z,100.00
2022-10-23T00:31:18.388Z,100.00
2022-10-23T00:33:49.431Z,100.00
2022-10-23T00:36:18.465Z,100.00
2022-10-23T00:38:45.324Z,100.00
2022-10-23T00:41:28.452Z,100.00
2022-10-23T00:44:04.064Z,100.00
2022-10-23T00:46:31.122Z,100.00
2022-10-23T00:48:58.224Z,100.00
2022-10-23T00:51:27.645Z,100.00
2022-10-23T00:54:12.709Z,100.00
2022-10-23T00:56:47.111Z,100.00
2022-10-23T00:59:14.026Z,100.00
2022-10-23T01:01:41.319Z,100.00
2022-10-23T01:04:09.043Z,100.00
2022-10-23T01:06:51.074Z,100.00
2022-10-23T01:09:20.539Z,100.00
2022-10-23T01:11:56.326Z,100.00
2022-10-23T01:14:42.939Z,100.00
2022-10-23T01:17:12.123Z,100.00
2022-10-23T01:19:51.100Z,100.00
2022-10-23T01:22:35.817Z,100.00
2022-10-23T01:25:10.366Z,100.00
2022-10-23T01:27:42.232Z,100.00
2022-10-23T01:30:10.355Z,100.00
2022-10-23T01:32:48.328Z,100.00
2022-10-23T01:35:24.827Z,100.00
2022-10-23T01:38:01.338Z,100.00
2022-10-23T01:40:37.457Z,100.00
2022-10-23T01:43:16.499Z,100.00
2022-10-23T01:45:51.230Z,100.00
2022-10-23T01:48:25.064Z,100.00
2022-10-23T01:50:55.475Z,100.00
2022-10-23T01:53:23.382Z,100.00
2022-10-23T01:55:51.157Z,100.00
2022-10-23T01:58:21.053Z,100.00
2022-10-23T02:00:52.166Z,100.00
2022-10-23T02:03:19.028Z,100.00
2022-10-23T02:05:45.842Z,100.00
2022-10-23T02:08:12.734Z,100.00
2022-10-23T02:10:42.175Z,100.00
2022-10-23T02:13:19.131Z,100.00
2022-10-23T02:15:59.751Z,100.00
2022-10-23T02:18:31.897Z,100.00
2022-10-23T02:21:09.466Z,100.00
2022-10-23T02:23:47.054Z,100.00
2022-10-23T02:26:21.167Z,100.00
2022-10-23T02:28:57.166Z,100.00
2022-10-23T02:31:24.435Z,100.00
2022-10-23T02:33:51.062Z,100.00
2022-10-23T02:36:19.193Z,100.00
2022-10-23T02:38:45.968Z,100.00
2022-10-23T02:41:32.656Z,100.00
2022-10-23T02:44:10.714Z,100.00
2022-10-23T02:46:43.045Z,100.00
2022-10-23T02:49:20.079Z,100.00
2022-10-23T02:51:57.306Z,100.00
2022-10-23T02:54:50.907Z,100.00
2022-10-23T02:57:36.806Z,100.00
2022-10-23T03:00:11.565Z,100.00
2022-10-23T03:02:46.181Z,100.00
2022-10-23T03:05:18.543Z,100.00
2022-10-23T03:07:46.823Z,100.00
2022-10-23T03:10:13.861Z,100.00
2022-10-23T03:12:40.999Z,100.00
2022-10-23T03:15:08.674Z,100.00
2022-10-23T03:17:35.154Z,100.00
2022-10-23T03:20:01.715Z,100.00
2022-10-23T03:22:28.214Z,100.00
2022-10-23T03:24:54.752Z,100.00
2022-10-23T03:27:24.531Z,100.00
2022-10-23T03:29:51.123Z,100.00
2022-10-23T03:32:20.431Z,100.00
2022-10-23T03:34:46.900Z,100.00
2022-10-23T03:37:13.392Z,100.00
2022-10-23T03:39:40.055Z,100.00
2022-10-23T03:42:06.522Z,100.00
2022-10-23T03:44:34.169Z,100.00
2022-10-23T03:47:01.218Z,100.00
2022-10-23T03:49:27.664Z,100.00
2022-10-23T03:51:54.218Z,100.00
2022-10-23T03:54:23.399Z,100.00
2022-10-23T03:56:53.622Z,100.00
2022-10-23T03:59:23.309Z,100.00
2022-10-23T04:01:49.893Z,100.00
2022-10-23T04:04:17.273Z,100.00
2022-10-23T04:06:44.219Z,100.00
2022-10-23T04:11:42.766Z,100.00
2022-10-23T04:14:12.571Z,100.00
2022-10-23T04:16:39.365Z,100.00
2022-10-23T04:19:09.091Z,100.00
2022-10-23T04:21:35.648Z,100.00
2022-10-23T04:24:02.159Z,100.00
2022-10-23T04:26:28.623Z,100.00
2022-10-23T04:28:55.305Z,100.00
2022-10-23T04:31:21.820Z,100.00
2022-10-23T04:33:48.360Z,100.00
2022-10-23T04:36:14.835Z,100.00
2022-10-23T04:38:41.338Z,100.00
2022-10-23T04:41:07.927Z,100.00
2022-10-23T04:43:34.529Z,100.00
2022-10-23T04:46:00.997Z,100.00
2022-10-23T04:48:29.173Z,100.00
2022-10-23T04:51:01.510Z,100.00
2022-10-23T04:53:29.278Z,100.00
2022-10-23T04:55:57.971Z,100.00
2022-10-23T04:58:25.672Z,100.00
2022-10-23T05:00:52.893Z,100.00
2022-10-23T05:03:19.805Z,100.00
2022-10-23T05:05:46.583Z,100.00
2022-10-23T05:08:17.082Z,100.00
2022-10-23T05:10:44.791Z,100.00
2022-10-23T05:13:11.278Z,100.00
2022-10-23T05:15:37.852Z,100.00
2022-10-23T05:18:30.260Z,100.00
2022-10-23T05:20:59.403Z,100.00
2022-10-23T05:23:27.004Z,100.00
2022-10-23T05:25:53.612Z,100.00
2022-10-23T05:28:20.174Z,100.00
2022-10-23T05:30:47.118Z,100.00
2022-10-23T05:33:13.987Z,100.00
2022-10-23T05:35:44.219Z,100.00
2022-10-23T05:38:11.674Z,100.00
2022-10-23T05:43:05.618Z,100.00
2022-10-23T05:45:32.088Z,100.00
2022-10-23T05:48:10.619Z,100.00
2022-10-23T05:50:46.175Z,100.00
2022-10-23T05:53:12.824Z,100.00
2022-10-23T05:55:39.314Z,100.00
2022-10-23T05:58:05.819Z,100.00
2022-10-23T06:00:32.894Z,100.00
2022-10-23T06:03:00.998Z,100.00
2022-10-23T06:05:27.547Z,100.00
2022-10-23T06:08:00.183Z,100.00
2022-10-23T06:10:27.365Z,100.00
2022-10-23T06:12:53.851Z,100.00
2022-10-23T06:15:20.352Z,100.00
2022-10-23T06:17:46.895Z,100.00
2022-10-23T06:20:13.441Z,100.00
2022-10-23T06:22:40.257Z,100.00
2022-10-23T06:25:07.759Z,100.00
2022-10-23T06:27:34.234Z,100.00
2022-10-23T06:30:00.777Z,100.00
2022-10-23T06:32:27.256Z,100.00
2022-10-23T06:34:53.672Z,100.00
2022-10-23T06:37:20.173Z,100.00
2022-10-23T06:39:46.643Z,100.00
2022-10-23T06:42:13.201Z,100.00
2022-10-23T06:44:39.676Z,100.00
2022-10-23T06:47:06.785Z,100.00
2022-10-23T06:49:33.291Z,100.00
2022-10-23T06:51:59.731Z,100.00
2022-10-23T06:54:26.365Z,100.00
2022-10-23T06:56:53.336Z,100.00
2022-10-23T06:59:19.893Z,100.00
2022-10-23T07:01:46.974Z,100.00
2022-10-23T07:04:16.414Z,100.00
2022-10-23T07:06:43.585Z,100.00
2022-10-23T07:09:10.099Z,100.00
2022-10-23T07:11:37.393Z,100.00
2022-10-23T07:14:04.045Z,100.00
2022-10-23T07:16:31.918Z,100.00
2022-10-23T07:19:01.059Z,100.00
2022-10-23T07:21:29.766Z,100.00
2022-10-23T07:23:57.610Z,100.00
2022-10-23T07:26:24.883Z,100.00
2022-10-23T07:28:55.004Z,100.00
2022-10-23T07:31:28.061Z,100.00
2022-10-23T07:33:54.975Z,100.00
2022-10-23T07:36:21.803Z,100.00
2022-10-23T07:38:48.353Z,100.00
2022-10-23T07:41:15.472Z,100.00
2022-10-23T07:43:41.981Z,100.00
2022-10-23T07:46:09.917Z,100.00
2022-10-23T07:48:37.821Z,100.00
2022-10-23T07:51:11.770Z,100.00
2022-10-23T07:53:38.847Z,100.00
2022-10-23T07:56:16.554Z,100.00
2022-10-23T07:58:43.842Z,100.00
2022-10-23T08:01:18.658Z,100.00
2022-10-23T08:03:45.583Z,100.00
2022-10-23T08:06:12.503Z,100.00
2022-10-23T08:08:39.029Z,100.00
2022-10-23T08:11:05.936Z,100.00
2022-10-23T08:13:32.427Z,100.00
2022-10-23T08:15:59.455Z,100.00
2022-10-23T08:18:25.891Z,100.00
2022-10-23T08:20:52.938Z,100.00
2022-10-23T08:23:20.226Z,100.00
2022-10-23T08:25:47.395Z,100.00
2022-10-23T08:28:14.970Z,100.00
2022-10-23T08:30:41.473Z,100.00
2022-10-23T08:33:08.056Z,100.00
2022-10-23T08:35:38.350Z,100.00
2022-10-23T08:38:06.319Z,100.00
2022-10-23T08:40:33.048Z,100.00
2022-10-23T08:43:05.323Z,100.00
2022-10-23T08:45:58.466Z,100.00
2022-10-23T08:48:38.384Z,100.00
2022-10-23T08:51:16.162Z,100.00
2022-10-23T08:54:02.757Z,100.00
2022-10-23T08:56:39.384Z,100.00
2022-10-23T08:59:24.983Z,100.00
2022-10-23T09:02:11.620Z,100.00
2022-10-23T09:04:38.262Z,100.00
2022-10-23T09:07:35.276Z,100.00
2022-10-23T09:10:10.486Z,100.00
2022-10-23T09:12:37.373Z,100.00
2022-10-23T09:15:28.377Z,100.00
2022-10-23T09:18:00.910Z,100.00
2022-10-23T09:20:31.975Z,99.40
2022-10-23T09:23:02.716Z,95.48
2022-10-23T09:25:41.212Z,94.98
2022-10-23T09:28:18.871Z,90.91
2022-10-23T09:30:45.378Z,90.78
2022-10-23T09:33:16.352Z,88.96
2022-10-23T09:36:02.304Z,88.19
2022-10-23T09:38:39.229Z,86.31
2022-10-23T09:41:24.586Z,84.38
2022-10-23T09:44:15.666Z,83.11
2022-10-23T09:46:44.847Z,83.70
2022-10-23T09:49:20.742Z,84.38
2022-10-23T09:52:10.425Z,84.07
2022-10-23T09:54:39.975Z,84.56
2022-10-23T09:57:23.554Z,84.16
2022-10-23T09:59:55.268Z,83.04
2022-10-23T10:02:27.448Z,83.68
2022-10-23T10:04:54.580Z,82.59
2022-10-23T10:07:31.147Z,83.23
2022-10-23T10:10:00.145Z,84.64
2022-10-23T10:12:37.493Z,85.75
2022-10-23T10:15:14.919Z,85.30
2022-10-23T10:17:47.188Z,86.11
2022-10-23T10:20:38.556Z,85.75
2022-10-23T10:23:28.575Z,84.50
2022-10-23T10:26:17.163Z,82.59
2022-10-23T10:29:02.238Z,82.70
2022-10-23T10:31:53.313Z,81.83
2022-10-23T10:34:35.006Z,81.18
2022-10-23T10:37:13.906Z,81.61
2022-10-23T10:39:55.639Z,81.22
2022-10-23T10:43:04.510Z,81.85
2022-10-23T10:45:33.855Z,80.52
2022-10-23T10:48:37.176Z,79.35
2022-10-23T10:51:11.928Z,80.11
2022-10-23T10:53:49.292Z,80.82
2022-10-23T10:56:18.894Z,79.13
2022-10-23T10:58:56.576Z,78.59
2022-10-23T11:01:28.715Z,77.54
2022-10-23T11:04:06.746Z,77.02
2022-10-23T11:06:36.541Z,76.97
2022-10-23T11:09:20.751Z,77.13
2022-10-23T11:11:48.719Z,77.43
2022-10-23T11:14:24.344Z,76.54
2022-10-23T11:16:53.629Z,76.78
2022-10-23T11:19:25.537Z,78.78
2022-10-23T11:22:05.233Z,78.97
2022-10-23T11:24:59.602Z,76.92
2022-10-23T11:27:35.213Z,76.51
2022-10-23T11:30:30.991Z,76.28
2022-10-23T11:33:34.651Z,76.75
2022-10-23T11:36:17.135Z,74.54
2022-10-23T11:38:46.459Z,71.70
2022-10-23T11:41:27.173Z,72.09
2022-10-23T11:44:03.993Z,71.77
2022-10-23T11:46:40.847Z,72.75
2022-10-23T11:49:21.256Z,72.41
2022-10-23T11:51:47.983Z,71.35
2022-10-23T11:54:17.571Z,71.66
2022-10-23T11:57:11.516Z,71.61
2022-10-23T11:59:52.511Z,72.88
2022-10-23T12:02:32.961Z,72.46
2022-10-23T12:05:09.588Z,73.03
2022-10-23T12:07:38.349Z,71.18
2022-10-23T12:10:17.449Z,72.02
2022-10-23T12:12:55.512Z,73.28
2022-10-23T12:15:23.550Z,73.60
2022-10-23T12:17:51.198Z,72.98
2022-10-23T12:20:44.810Z,73.01
2022-10-23T12:23:26.299Z,73.71
2022-10-23T12:26:14.453Z,73.01
2022-10-23T12:29:19.108Z,74.20
2022-10-23T12:32:12.467Z,71.78
2022-10-23T12:35:23.922Z,76.79
2022-10-23T12:37:59.151Z,76.47
2022-10-23T12:40:30.209Z,75.28
2022-10-23T12:42:59.521Z,74.24
2022-10-23T12:45:31.964Z,75.40
2022-10-23T12:47:58.474Z,74.74
2022-10-23T12:50:27.660Z,74.87
2022-10-23T12:52:57.133Z,75.11
2022-10-23T12:55:25.610Z,75.12
2022-10-23T12:57:54.551Z,75.54
2022-10-23T13:00:23.731Z,76.13
2022-10-23T13:03:04.114Z,75.09
2022-10-23T13:05:32.179Z,74.17
2022-10-23T13:08:00.816Z,74.28
2022-10-23T13:10:27.778Z,74.77
2022-10-23T13:13:02.609Z,75.58
2022-10-23T13:15:40.682Z,77.44
2022-10-23T13:18:08.718Z,77.42
2022-10-23T13:20:42.308Z,78.88
2022-10-23T13:23:19.134Z,81.48
2022-10-23T13:25:56.774Z,79.31
2022-10-23T13:28:29.284Z,77.66
2022-10-23T13:30:58.747Z,77.97
2022-10-23T13:33:31.418Z,76.96
2022-10-23T13:36:16.587Z,78.28
2022-10-23T13:38:47.237Z,79.73
2022-10-23T13:41:17.677Z,79.19
2022-10-23T13:43:46.010Z,79.56
2022-10-23T13:46:17.438Z,77.26
2022-10-23T13:48:44.048Z,76.95
2022-10-23T13:51:14.919Z,78.66
2022-10-23T13:53:41.856Z,78.70
2022-10-23T13:56:11.963Z,76.62
2022-10-23T13:58:38.688Z,77.60
2022-10-23T14:01:06.474Z,79.17
2022-10-23T14:03:33.047Z,76.79
2022-10-23T14:06:00.468Z,75.70
2022-10-23T14:08:26.922Z,73.62
2022-10-23T14:10:53.481Z,71.83
2022-10-23T14:13:19.957Z,72.34
2022-10-23T14:15:53.861Z,71.98
2022-10-23T14:18:20.748Z,71.39
2022-10-23T14:20:47.548Z,72.14
2022-10-23T14:23:14.007Z,71.06
2022-10-23T14:25:40.537Z,70.02
2022-10-23T14:28:07.053Z,71.47
2022-10-23T14:30:36.540Z,70.36
2022-10-23T14:33:03.380Z,71.24
2022-10-23T14:35:29.926Z,71.67
2022-10-23T14:37:57.870Z,71.11
2022-10-23T14:40:24.427Z,71.48
2022-10-23T14:42:50.982Z,74.12
2022-10-23T14:45:17.466Z,73.52
2022-10-23T14:47:44.297Z,72.59
2022-10-23T14:50:12.022Z,73.12
2022-10-23T14:52:38.509Z,73.60
2022-10-23T14:55:05.291Z,72.56
2022-10-23T14:57:31.782Z,70.46
2022-10-23T14:59:58.242Z,71.34
2022-10-23T15:02:24.758Z,73.00
2022-10-23T15:04:51.225Z,72.62
2022-10-23T15:07:17.819Z,74.62
2022-10-23T15:09:44.296Z,75.85
2022-10-23T15:12:10.796Z,75.39
2022-10-23T15:14:37.367Z,77.13
2022-10-23T15:17:04.345Z,78.50
2022-10-23T15:19:31.172Z,77.88
2022-10-23T15:21:57.679Z,75.74
2022-10-23T15:24:24.479Z,74.41
2022-10-23T15:26:51.889Z,73.04
2022-10-23T15:29:19.389Z,74.03
2022-10-23T15:31:54.530Z,72.19
2022-10-23T15:34:24.605Z,72.27
2022-10-23T15:36:52.638Z,72.27
2022-10-23T15:39:22.161Z,71.19
2022-10-23T15:41:52.985Z,70.13
2022-10-23T15:44:21.583Z,69.80
2022-10-23T15:46:48.656Z,71.01
2022-10-23T15:49:15.465Z,71.48
2022-10-23T15:51:42.401Z,72.50
2022-10-23T15:54:13.136Z,70.89
2022-10-23T15:56:39.815Z,72.55
2022-10-23T15:59:06.271Z,75.34
2022-10-23T16:01:32.902Z,77.30
2022-10-23T16:03:59.433Z,78.52
2022-10-23T16:06:26.301Z,78.83
2022-10-23T16:11:27.192Z,81.39
2022-10-23T16:13:58.218Z,81.54
2022-10-23T16:16:25.010Z,80.08
2022-10-23T16:18:52.796Z,81.01
2022-10-23T16:21:25.804Z,83.44
2022-10-23T16:23:53.996Z,81.90
2022-10-23T16:26:21.364Z,81.98
2022-10-23T16:28:48.231Z,83.12
2022-10-23T16:31:20.010Z,83.70
2022-10-23T16:33:48.015Z,83.69
2022-10-23T16:36:14.554Z,83.79
2022-10-23T16:38:41.139Z,84.57
2022-10-23T16:41:07.686Z,83.92
2022-10-23T16:43:34.325Z,84.32
2022-10-23T16:46:06.390Z,83.80
2022-10-23T16:48:34.690Z,81.62
2022-10-23T16:51:05.528Z,79.99
2022-10-23T16:53:33.202Z,78.76
2022-10-23T16:56:00.114Z,77.68
2022-10-23T16:58:27.405Z,75.20
2022-10-23T17:01:02.402Z,76.16
2022-10-23T17:03:29.855Z,75.28
2022-10-23T17:06:01.733Z,74.74
2022-10-23T17:08:28.828Z,75.76
2022-10-23T17:11:08.514Z,75.91
2022-10-23T17:13:37.022Z,76.51
2022-10-23T17:16:10.031Z,76.35
2022-10-23T17:18:41.295Z,76.37
2022-10-23T17:21:11.953Z,76.29
2022-10-23T17:23:38.573Z,75.79
2022-10-23T17:26:09.034Z,75.10
2022-10-23T17:28:39.852Z,74.03
2022-10-23T17:31:33.394Z,73.10
2022-10-23T17:34:06.314Z,73.04
2022-10-23T17:36:37.055Z,71.52
2022-10-23T17:39:07.736Z,72.20
2022-10-23T17:41:35.206Z,72.11
2022-10-23T17:44:01.723Z,73.45
2022-10-23T17:46:31.837Z,74.25
2022-10-23T17:51:34.806Z,76.02
2022-10-23T17:54:04.248Z,75.40
2022-10-23T17:56:32.740Z,73.77
2022-10-23T17:59:23.609Z,72.10
2022-10-23T18:01:50.781Z,72.47
2022-10-23T18:04:20.000Z,73.09
2022-10-23T18:06:52.569Z,72.77
2022-10-23T18:09:23.080Z,73.33
2022-10-23T18:11:50.372Z,72.74
2022-10-23T18:14:20.377Z,73.46
2022-10-23T18:16:47.086Z,75.09
2022-10-23T18:19:15.629Z,77.03
2022-10-23T18:21:42.362Z,76.81
2022-10-23T18:24:09.085Z,76.18
2022-10-23T18:26:39.068Z,76.84
2022-10-23T18:29:07.839Z,78.88
2022-10-23T18:31:37.087Z,76.99
2022-10-23T18:34:07.663Z,76.16
2022-10-23T18:36:37.334Z,76.41
2022-10-23T18:39:06.813Z,75.81
2022-10-23T18:41:39.042Z,74.51
2022-10-23T18:44:05.982Z,74.09
2022-10-23T18:46:33.021Z,74.50
2022-10-23T18:48:59.779Z,74.50
2022-10-23T18:51:30.385Z,75.21
2022-10-23T18:53:57.600Z,75.37
2022-10-23T18:56:26.686Z,75.04
2022-10-23T18:58:58.761Z,75.91
2022-10-23T19:01:27.216Z,75.41
2022-10-23T19:06:27.520Z,75.52
2022-10-23T19:08:54.282Z,76.19
2022-10-23T19:11:24.119Z,75.50
2022-10-23T19:13:50.994Z,76.63
2022-10-23T19:16:27.790Z,79.99
2022-10-23T19:18:58.895Z,82.03
2022-10-23T19:21:31.746Z,84.22
2022-10-23T19:24:05.887Z,86.95
2022-10-23T19:26:34.641Z,89.41
2022-10-23T19:29:01.787Z,91.16
2022-10-23T19:31:28.443Z,92.56
2022-10-23T19:33:55.010Z,94.60
2022-10-23T19:36:23.447Z,96.94
2022-10-23T19:38:50.499Z,98.55
2022-10-23T19:41:18.367Z,99.99
2022-10-23T19:43:45.218Z,100.00
2022-10-23T19:46:12.323Z,100.00
2022-10-23T19:48:43.584Z,100.00
2022-10-23T19:51:10.704Z,100.00
2022-10-23T19:53:37.899Z,100.00
2022-10-23T19:56:06.653Z,100.00
2022-10-23T19:58:33.692Z,100.00
2022-10-23T20:01:11.690Z,100.00
2022-10-23T20:03:39.629Z,100.00
2022-10-23T20:06:09.336Z,100.00
2022-10-23T20:08:35.948Z,100.00
2022-10-23T20:11:02.768Z,100.00
2022-10-23T20:13:29.323Z,100.00
2022-10-23T20:15:55.913Z,100.00
2022-10-23T20:18:25.658Z,100.00
2022-10-23T20:20:52.936Z,100.00
2022-10-23T20:23:20.146Z,100.00
2022-10-23T20:25:46.693Z,100.00
2022-10-23T20:28:15.115Z,100.00
2022-10-23T20:30:42.522Z,100.00
2022-10-23T20:33:09.396Z,100.00
2022-10-23T20:35:42.763Z,100.00
2022-10-23T20:38:10.049Z,100.00
2022-10-23T20:40:36.613Z,100.00
2022-10-23T20:43:03.192Z,100.00
2022-10-23T20:45:29.676Z,100.00
2022-10-23T20:47:59.366Z,100.00
2022-10-23T20:50:25.869Z,100.00
2022-10-23T20:52:52.346Z,100.00
2022-10-23T20:55:19.617Z,100.00
2022-10-23T20:57:46.660Z,100.00
2022-10-23T21:00:13.749Z,100.00
2022-10-23T21:02:40.362Z,100.00
2022-10-23T21:05:07.378Z,100.00
2022-10-23T21:07:34.036Z,100.00
2022-10-23T21:10:01.154Z,100.00
2022-10-23T21:12:30.509Z,100.00
2022-10-23T21:14:57.105Z,100.00
2022-10-23T21:17:23.699Z,100.00
2022-10-23T21:19:50.224Z,100.00
2022-10-23T21:22:16.866Z,100.00
2022-10-23T21:24:43.568Z,100.00
2022-10-23T21:27:10.091Z,100.00
2022-10-23T21:29:36.543Z,100.00
2022-10-23T21:32:06.604Z,100.00
2022-10-23T21:34:33.091Z,100.00
2022-10-23T21:37:12.468Z,100.00
2022-10-23T21:39:39.810Z,100.00
2022-10-23T21:42:09.368Z,100.00
2022-10-23T21:44:35.909Z,100.00
2022-10-23T21:47:02.472Z,100.00
2022-10-23T21:49:32.508Z,100.00
2022-10-23T21:51:59.031Z,100.00
2022-10-23T21:54:25.572Z,100.00
2022-10-23T21:56:53.868Z,100.00
2022-10-23T21:59:24.094Z,100.00
2022-10-23T22:01:51.699Z,100.00
2022-10-23T22:04:19.645Z,100.00
2022-10-23T22:06:48.784Z,100.00
2022-10-23T22:09:23.662Z,100.00
2022-10-23T22:11:54.505Z,100.00
2022-10-23T22:14:22.168Z,100.00
2022-10-23T22:16:49.319Z,100.00
2022-10-23T22:19:17.081Z,100.00
2022-10-23T22:21:44.039Z,100.00
2022-10-23T22:24:10.833Z,100.00
2022-10-23T22:26:48.598Z,100.00
2022-10-23T22:29:19.729Z,100.00
2022-10-23T22:31:50.091Z,100.00
2022-10-23T22:37:15.149Z,100.00
2022-10-23T22:39:42.175Z,100.00
2022-10-23T22:42:12.167Z,100.00
2022-10-23T22:44:38.636Z,100.00
2022-10-23T22:47:05.137Z,100.00
2022-10-23T22:49:34.277Z,100.00
2022-10-23T22:52:00.771Z,100.00
2022-10-23T22:54:27.320Z,100.00
2022-10-23T22:56:57.010Z,100.00
2022-10-23T22:59:23.539Z,100.00
2022-10-23T23:01:51.111Z,100.00
2022-10-23T23:07:09.847Z,100.00
2022-10-23T23:09:41.539Z,100.00
2022-10-23T23:12:12.738Z,100.00
2022-10-23T23:14:40.193Z,100.00
2022-10-23T23:17:07.904Z,100.00
2022-10-23T23:19:35.723Z,100.00
2022-10-23T23:22:02.403Z,100.00
2022-10-23T23:24:32.257Z,100.00
2022-10-23T23:26:58.829Z,100.00
2022-10-23T23:29:29.553Z,100.00
2022-10-23T23:31:56.162Z,100.00
2022-10-23T23:34:22.886Z,100.00
2022-10-23T23:36:49.384Z,100.00
2022-10-23T23:39:16.373Z,100.00
2022-10-23T23:41:42.873Z,100.00
2022-10-23T23:44:09.982Z,100.00
2022-10-23T23:46:36.471Z,100.00
2022-10-23T23:49:03.155Z,100.00
2022-10-23T23:51:31.340Z,100.00
2022-10-23T23:53:57.828Z,100.00
2022-10-23T23:56:28.173Z,100.00
2022-10-23T23:58:58.658Z,100.00
